Poquott, New York
Current Conditions -  °F | °C
As of 4:56 AM on Thursday 27 Nov 2014 (Local Time) from KISP Reporting Station
Overcast Overcast  
Wind Chill: 29°   Ceiling: 7000
Heat Index: 35°   Visibility: 10mi
Dew Point: 31°   Wind: 7mph
Humidity: 85%   Direction: 290°WNW
Pressure: 29.89"   Gusts: NA
Location:  40.9344°N, 73.1065°W
Report Text: KISP 270956Z AUTO 29006KT 10SM OVC070 02/M01 A2989 RMK AO2 SLP122 T00171006
Loading
Personal Weather Stations






























Interactive Weather Map New forecast layout! Learn more

10-Day Weather Forecast

Advertisements
Track Severe Weather on mobile